createdAt,value
2022-08-22T00:03:09.777Z,36.25
2022-08-22T00:04:47.999Z,36.59
2022-08-22T00:10:10.896Z,35.74
2022-08-22T00:31:45.546Z,35.52
2022-08-22T01:16:30.399Z,37.02
2022-08-22T01:18:57.795Z,36.82
2022-08-22T01:21:30.655Z,38.13
2022-08-22T01:23:57.633Z,38.39
2022-08-22T01:29:46.600Z,37.18
2022-08-22T01:38:41.421Z,37.77
2022-08-22T01:57:23.987Z,39.13
2022-08-22T02:09:26.056Z,39.38
2022-08-22T02:54:02.300Z,41.04
2022-08-22T02:56:38.231Z,41.05
2022-08-22T03:05:27.539Z,43.65
2022-08-22T03:42:19.971Z,42.45
2022-08-22T03:54:02.773Z,41.98
2022-08-22T03:56:32.331Z,43.50
2022-08-22T03:59:10.077Z,42.21
2022-08-22T04:01:41.436Z,42.04
2022-08-22T04:07:03.548Z,42.08
2022-08-22T04:09:32.746Z,41.72
2022-08-22T04:12:02.042Z,41.82
2022-08-22T04:14:28.995Z,42.48
2022-08-22T04:16:56.578Z,41.62
2022-08-22T04:19:23.497Z,41.41
2022-08-22T04:21:50.697Z,41.45
2022-08-22T04:24:17.609Z,42.79
2022-08-22T04:26:44.548Z,42.05
2022-08-22T04:29:12.297Z,43.40
2022-08-22T04:31:40.522Z,43.67
2022-08-22T04:34:09.129Z,43.63
2022-08-22T04:36:36.169Z,43.40
2022-08-22T04:39:05.188Z,42.48
2022-08-22T04:41:32.239Z,44.11
2022-08-22T04:43:59.181Z,44.70
2022-08-22T04:46:26.155Z,45.01
2022-08-22T04:49:03.459Z,44.77
2022-08-22T04:54:50.126Z,43.77
2022-08-22T04:57:18.744Z,43.67
2022-08-22T04:59:54.083Z,45.23
2022-08-22T05:02:21.577Z,43.69
2022-08-22T05:04:48.193Z,44.51
2022-08-22T05:07:22.301Z,44.37
2022-08-22T05:09:49.247Z,43.67
2022-08-22T05:12:16.761Z,44.19
2022-08-22T05:14:43.577Z,43.26
2022-08-22T05:17:10.775Z,43.69
2022-08-22T05:19:43.026Z,43.20
2022-08-22T05:22:12.061Z,43.67
2022-08-22T05:24:41.627Z,39.93
2022-08-22T05:27:08.482Z,36.36
2022-08-22T05:29:37.134Z,33.55
2022-08-22T05:34:36.785Z,31.21
2022-08-22T05:37:03.830Z,29.49
2022-08-22T05:39:35.496Z,29.06
2022-08-22T05:42:04.412Z,28.33
2022-08-22T05:44:31.418Z,26.83
2022-08-22T05:46:58.703Z,26.06
2022-08-22T05:49:26.370Z,25.17
2022-08-22T05:51:53.149Z,24.83
2022-08-22T05:54:20.218Z,24.66
2022-08-22T05:56:46.987Z,24.36
2022-08-22T05:59:14.489Z,24.24
2022-08-22T06:01:41.918Z,24.77
2022-08-22T06:04:10.325Z,25.57
2022-08-22T06:06:37.181Z,24.18
2022-08-22T06:09:04.171Z,24.34
2022-08-22T06:11:33.993Z,24.55
2022-08-22T06:17:16.745Z,24.38
2022-08-22T06:19:45.731Z,24.74
2022-08-22T06:22:13.738Z,24.85
2022-08-22T06:24:45.437Z,24.41
2022-08-22T06:27:12.403Z,24.01
2022-08-22T06:29:40.095Z,24.06
2022-08-22T06:32:07.636Z,24.25
2022-08-22T06:34:35.276Z,24.51
2022-08-22T06:37:02.064Z,24.35
2022-08-22T06:39:29.434Z,24.97
2022-08-22T06:41:56.430Z,24.96
2022-08-22T06:44:25.427Z,25.40
2022-08-22T06:46:52.646Z,25.32
2022-08-22T06:49:20.498Z,24.51
2022-08-22T06:54:51.576Z,24.13
2022-08-22T06:57:22.908Z,24.95
2022-08-22T06:59:49.969Z,25.30
2022-08-22T07:02:18.564Z,25.51
2022-08-22T07:04:45.790Z,25.55
2022-08-22T07:07:19.906Z,25.76
2022-08-22T07:09:46.913Z,25.64
2022-08-22T07:12:14.288Z,25.44
2022-08-22T07:14:43.032Z,25.61
2022-08-22T07:17:12.278Z,25.56
2022-08-22T07:19:40.068Z,25.78
2022-08-22T07:25:25.791Z,25.43
2022-08-22T07:27:52.664Z,25.27
2022-08-22T07:30:27.338Z,25.62
2022-08-22T07:32:55.818Z,26.46
2022-08-22T07:38:38.859Z,27.83
2022-08-22T07:41:24.764Z,28.48
2022-08-22T07:50:31.252Z,29.06
2022-08-22T08:00:05.564Z,31.35
2022-08-22T08:02:52.062Z,31.14
2022-08-22T08:04:51.924Z,31.65
2022-08-22T08:07:22.608Z,32.26
2022-08-22T08:13:26.251Z,32.10
2022-08-22T08:16:09.593Z,32.68
2022-08-22T08:22:03.216Z,34.21
2022-08-22T08:27:25.480Z,35.53
2022-08-22T08:33:26.832Z,35.19
2022-08-22T08:36:02.722Z,34.86
2022-08-22T08:38:41.647Z,35.81
2022-08-22T08:41:22.620Z,37.47
2022-08-22T08:44:03.305Z,36.80
2022-08-22T08:52:37.027Z,37.68
2022-08-22T08:58:17.570Z,37.61
2022-08-22T09:01:28.723Z,35.67
2022-08-22T09:04:01.878Z,38.79
2022-08-22T09:06:33.113Z,38.71
2022-08-22T09:09:10.071Z,39.14
2022-08-22T09:15:38.989Z,39.07
2022-08-22T09:17:52.329Z,40.49
2022-08-22T09:20:24.465Z,39.31
2022-08-22T09:22:55.754Z,38.52
2022-08-22T09:25:24.267Z,38.23
2022-08-22T09:27:51.368Z,38.25
2022-08-22T09:30:18.406Z,38.73
2022-08-22T09:32:55.668Z,39.04
2022-08-22T09:35:22.813Z,39.25
2022-08-22T09:37:52.185Z,39.31
2022-08-22T09:40:16.124Z,38.84
2022-08-22T09:42:52.385Z,38.91
2022-08-22T09:45:20.244Z,38.56
2022-08-22T09:47:47.947Z,38.91
2022-08-22T09:50:17.103Z,38.55
2022-08-22T09:52:46.683Z,37.60
2022-08-22T09:55:16.139Z,38.20
2022-08-22T09:57:45.460Z,37.24
2022-08-22T10:00:14.845Z,37.21
2022-08-22T10:02:55.219Z,36.48
2022-08-22T10:05:40.380Z,36.15
2022-08-22T10:08:11.401Z,35.99
2022-08-22T10:10:39.136Z,36.23
2022-08-22T10:16:16.883Z,37.17
2022-08-22T10:18:53.890Z,36.04
2022-08-22T10:21:23.885Z,36.22
2022-08-22T10:23:52.967Z,37.60
2022-08-22T10:26:23.092Z,36.34
2022-08-22T10:28:54.373Z,36.51
2022-08-22T10:31:22.372Z,36.08
2022-08-22T10:33:50.170Z,36.84
2022-08-22T10:36:17.073Z,36.18
2022-08-22T10:38:48.253Z,36.33
2022-08-22T10:41:15.709Z,35.02
2022-08-22T10:43:48.125Z,35.00
2022-08-22T10:46:25.674Z,35.33
2022-08-22T10:48:55.756Z,34.32
2022-08-22T10:51:24.229Z,34.18
2022-08-22T10:53:54.351Z,35.11
2022-08-22T10:59:10.383Z,35.78
2022-08-22T11:01:42.046Z,35.93
2022-08-22T11:04:09.214Z,36.85
2022-08-22T11:06:39.434Z,36.33
2022-08-22T11:09:06.908Z,36.07
2022-08-22T11:11:33.558Z,35.16
2022-08-22T11:14:04.640Z,35.25
2022-08-22T11:16:31.730Z,35.68
2022-08-22T11:19:15.098Z,34.69
2022-08-22T11:21:43.168Z,34.21
2022-08-22T11:24:17.283Z,34.18
2022-08-22T11:26:58.467Z,36.04
2022-08-22T11:29:27.322Z,36.02
2022-08-22T11:31:54.102Z,36.09
2022-08-22T11:37:42.742Z,36.39
2022-08-22T11:40:11.790Z,35.82
2022-08-22T11:42:47.391Z,35.77
2022-08-22T11:45:16.430Z,36.22
2022-08-22T11:47:43.768Z,36.36
2022-08-22T11:50:13.668Z,35.40
2022-08-22T11:52:41.014Z,35.60
2022-08-22T11:55:11.583Z,35.76
2022-08-22T11:57:38.656Z,33.21
2022-08-22T12:00:11.719Z,34.43
2022-08-22T12:02:38.451Z,34.11
2022-08-22T12:05:05.539Z,34.38
2022-08-22T12:07:33.154Z,32.60
2022-08-22T12:10:00.209Z,31.98
2022-08-22T12:12:27.807Z,32.26
2022-08-22T12:14:56.193Z,32.11
2022-08-22T12:17:50.724Z,33.27
2022-08-22T12:20:16.317Z,32.71
2022-08-22T12:22:50.090Z,32.64
2022-08-22T12:25:18.461Z,32.78
2022-08-22T12:27:50.613Z,33.69
2022-08-22T12:30:20.970Z,32.73
2022-08-22T12:32:48.940Z,32.45
2022-08-22T12:35:18.114Z,30.96
2022-08-22T12:37:52.707Z,29.81
2022-08-22T12:40:22.057Z,29.21
2022-08-22T12:42:53.447Z,26.93
2022-08-22T12:45:23.842Z,28.38
2022-08-22T12:47:52.867Z,24.98
2022-08-22T12:50:23.989Z,27.69
2022-08-22T12:52:51.421Z,27.08
2022-08-22T12:55:18.904Z,27.70
2022-08-22T12:57:50.414Z,28.30
2022-08-22T13:00:23.000Z,29.46
2022-08-22T13:02:57.341Z,27.74
2022-08-22T13:05:30.649Z,26.86
2022-08-22T13:08:04.568Z,26.96
2022-08-22T13:10:33.022Z,30.07
2022-08-22T13:13:00.556Z,28.28
2022-08-22T13:15:31.323Z,28.69
2022-08-22T13:18:18.982Z,28.87
2022-08-22T13:20:47.821Z,27.86
2022-08-22T13:23:18.419Z,28.77
2022-08-22T13:25:46.713Z,29.13
2022-08-22T13:28:18.370Z,30.26
2022-08-22T13:30:48.221Z,30.05
2022-08-22T13:33:19.663Z,31.74
2022-08-22T13:38:16.027Z,28.48
2022-08-22T13:40:53.940Z,26.91
2022-08-22T13:43:22.922Z,26.30
2022-08-22T13:45:51.794Z,28.09
2022-08-22T13:48:18.786Z,27.95
2022-08-22T13:50:53.890Z,27.91
2022-08-22T13:53:23.971Z,26.39
2022-08-22T13:55:54.335Z,26.13
2022-08-22T13:58:21.085Z,25.01
2022-08-22T14:00:57.883Z,24.21
2022-08-22T14:03:30.367Z,22.82
2022-08-22T14:08:48.648Z,23.80
2022-08-22T14:11:20.038Z,23.67
2022-08-22T14:13:56.838Z,23.16
2022-08-22T14:16:24.605Z,23.53
2022-08-22T14:21:33.527Z,24.41
2022-08-22T14:24:07.668Z,23.38
2022-08-22T14:26:47.842Z,23.24
2022-08-22T14:29:17.042Z,24.19
2022-08-22T14:31:44.672Z,23.30
2022-08-22T14:34:14.244Z,22.64
2022-08-22T14:36:42.760Z,25.73
2022-08-22T14:39:09.821Z,29.62
2022-08-22T14:41:52.710Z,28.91
2022-08-22T14:44:24.431Z,26.73
2022-08-22T14:46:51.849Z,25.87
2022-08-22T14:49:20.618Z,25.96
2022-08-22T14:51:52.657Z,24.58
2022-08-22T14:54:21.471Z,24.49
2022-08-22T14:56:50.961Z,24.08
2022-08-22T14:59:18.070Z,23.33
2022-08-22T15:01:46.080Z,23.59
2022-08-22T15:04:19.293Z,24.10
2022-08-22T15:06:48.384Z,24.94
2022-08-22T15:09:15.623Z,24.67
2022-08-22T15:11:46.501Z,24.70
2022-08-22T15:14:15.042Z,25.47
2022-08-22T15:16:42.853Z,24.48
2022-08-22T15:19:10.157Z,23.75
2022-08-22T15:24:56.673Z,22.75
2022-08-22T15:27:25.938Z,22.37
2022-08-22T15:29:55.207Z,22.67
2022-08-22T15:32:23.128Z,22.79
2022-08-22T15:34:53.748Z,23.42
2022-08-22T15:37:28.948Z,22.99
2022-08-22T15:40:07.411Z,23.30
2022-08-22T15:42:37.449Z,23.58
2022-08-22T15:45:04.251Z,23.79
2022-08-22T15:47:34.824Z,24.39
2022-08-22T15:50:05.262Z,24.21
2022-08-22T15:52:43.237Z,24.09
2022-08-22T15:55:27.721Z,23.92
2022-08-22T15:57:55.545Z,24.07
2022-08-22T16:03:46.203Z,23.64
2022-08-22T16:06:13.873Z,23.08
2022-08-22T16:08:40.749Z,22.31
2022-08-22T16:14:29.982Z,21.68
2022-08-22T16:17:02.057Z,21.75
2022-08-22T16:19:31.364Z,22.07
2022-08-22T16:22:01.892Z,21.94
2022-08-22T16:24:31.187Z,22.20
2022-08-22T16:27:00.537Z,21.93
2022-08-22T16:29:27.629Z,22.07
2022-08-22T16:31:54.250Z,21.85
2022-08-22T16:34:21.339Z,22.81
2022-08-22T16:36:49.035Z,22.10
2022-08-22T16:39:18.265Z,23.01
2022-08-22T16:41:47.421Z,22.28
2022-08-22T16:44:15.110Z,22.67
2022-08-22T16:46:43.702Z,22.55
2022-08-22T16:49:12.387Z,22.26
2022-08-22T16:51:41.492Z,21.24
2022-08-22T16:54:09.295Z,22.16
2022-08-22T16:56:36.055Z,21.70
2022-08-22T16:59:14.171Z,22.29
2022-08-22T17:04:36.923Z,23.94
2022-08-22T17:07:04.961Z,23.26
2022-08-22T17:09:32.208Z,23.18
2022-08-22T17:11:59.442Z,23.58
2022-08-22T17:14:28.608Z,23.75
2022-08-22T17:16:58.823Z,23.37
2022-08-22T17:19:26.148Z,23.89
2022-08-22T17:21:53.871Z,23.54
2022-08-22T17:24:33.762Z,23.94
2022-08-22T17:27:01.067Z,23.89
2022-08-22T17:29:28.176Z,24.87
2022-08-22T17:31:55.185Z,25.44
2022-08-22T17:34:22.736Z,25.78
2022-08-22T17:36:50.202Z,26.20
2022-08-22T17:39:17.561Z,25.90
2022-08-22T17:41:45.459Z,25.90
2022-08-22T17:44:15.039Z,26.04
2022-08-22T17:46:42.384Z,25.96
2022-08-22T17:49:09.011Z,26.25
2022-08-22T17:51:36.842Z,26.04
2022-08-22T17:54:03.461Z,25.33
2022-08-22T17:56:30.397Z,25.97
2022-08-22T17:59:00.999Z,25.65
2022-08-22T18:01:29.815Z,25.53
2022-08-22T18:03:58.689Z,26.80
2022-08-22T18:06:30.378Z,25.95
2022-08-22T18:09:16.578Z,25.28
2022-08-22T18:11:44.110Z,26.84
2022-08-22T18:14:10.808Z,27.27
2022-08-22T18:16:37.518Z,26.70
2022-08-22T18:22:07.469Z,26.18
2022-08-22T18:24:34.203Z,26.32
2022-08-22T18:27:00.808Z,26.96
2022-08-22T18:29:28.268Z,27.70
2022-08-22T18:31:54.856Z,29.00
2022-08-22T18:34:23.912Z,29.67
2022-08-22T18:36:50.795Z,30.38
2022-08-22T18:39:21.575Z,30.28
2022-08-22T18:41:48.243Z,30.50
2022-08-22T18:44:15.797Z,31.19
2022-08-22T18:46:43.030Z,31.91
2022-08-22T18:49:15.511Z,31.90
2022-08-22T18:51:42.495Z,32.10
2022-08-22T18:54:09.266Z,31.98
2022-08-22T18:56:36.664Z,32.40
2022-08-22T18:59:06.375Z,32.11
2022-08-22T19:01:42.334Z,32.49
2022-08-22T19:04:13.699Z,32.51
2022-08-22T19:06:40.464Z,32.45
2022-08-22T19:09:07.080Z,32.74
2022-08-22T19:11:36.969Z,32.78
2022-08-22T19:14:04.188Z,32.82
2022-08-22T21:39:29.360Z,26.73
2022-08-22T21:41:56.264Z,26.48
2022-08-22T21:44:23.706Z,26.12
2022-08-22T21:46:50.646Z,26.86
2022-08-22T21:49:19.945Z,27.32
2022-08-22T21:51:51.415Z,27.71
2022-08-22T21:54:19.124Z,28.11
2022-08-22T21:56:46.970Z,29.18
2022-08-22T21:59:16.278Z,29.89
2022-08-22T22:01:50.035Z,30.17
2022-08-22T22:04:17.063Z,29.89
2022-08-22T22:06:44.078Z,29.38
2022-08-22T22:09:15.089Z,29.59
2022-08-22T22:11:42.339Z,29.00
2022-08-22T22:14:09.375Z,29.17
2022-08-22T22:16:37.102Z,29.65
2022-08-22T22:19:04.551Z,28.48
2022-08-22T22:21:31.697Z,28.14
2022-08-22T22:23:58.878Z,27.71
2022-08-22T22:26:29.660Z,27.68
2022-08-22T22:28:57.271Z,28.17
2022-08-22T22:31:24.170Z,29.57
2022-08-22T22:34:01.288Z,31.54
2022-08-22T22:36:27.852Z,32.65
2022-08-22T22:38:55.567Z,32.86
2022-08-22T22:41:24.164Z,33.61
2022-08-22T22:43:54.445Z,33.71
2022-08-22T22:46:21.362Z,34.56
2022-08-22T22:48:48.739Z,35.46
2022-08-22T22:51:15.695Z,34.08
2022-08-22T22:53:43.720Z,34.46
2022-08-22T22:56:12.306Z,33.81
2022-08-22T22:58:38.972Z,33.20
2022-08-22T23:01:09.755Z,32.31
2022-08-22T23:03:48.028Z,32.63
2022-08-22T23:06:14.969Z,33.70
2022-08-22T23:08:42.471Z,32.71
2022-08-22T23:11:09.532Z,32.85
2022-08-22T23:13:37.428Z,32.85
2022-08-22T23:16:09.280Z,32.44
2022-08-22T23:18:36.238Z,32.28
2022-08-22T23:21:06.472Z,32.50
2022-08-22T23:23:36.982Z,32.91
2022-08-22T23:26:03.955Z,33.01
2022-08-22T23:28:30.936Z,33.00
2022-08-22T23:30:58.779Z,33.88
2022-08-22T23:33:26.344Z,33.56
2022-08-22T23:36:01.121Z,32.59
2022-08-22T23:38:35.380Z,32.79
2022-08-22T23:41:10.009Z,33.88
2022-08-22T23:43:37.549Z,33.40
2022-08-22T23:46:04.409Z,33.68
2022-08-22T23:48:31.485Z,33.30
2022-08-22T23:50:58.750Z,33.99
2022-08-22T23:53:28.980Z,34.10
2022-08-22T23:55:57.975Z,33.49
2022-08-22T23:58:25.154Z,33.46
